sensor_id;sensor_type;location;lat;lon;timestamp;P1;P2;P0
63915;PMS5003;50094;51.356;-0.196;2022-11-20T00:02:00;2;2;
63915;PMS5003;50094;51.356;-0.196;2022-11-20T00:04:27;0;0;
63915;PMS5003;50094;51.356;-0.196;2022-11-20T00:06:54;2;2;
63915;PMS5003;50094;51.356;-0.196;2022-11-20T00:09:21;2;2;
63915;PMS5003;50094;51.356;-0.196;2022-11-20T00:11:49;1;1;
63915;PMS5003;50094;51.356;-0.196;2022-11-20T00:14:16;3;1;
63915;PMS5003;50094;51.356;-0.196;2022-11-20T00:16:43;1;1;
63915;PMS5003;50094;51.356;-0.196;2022-11-20T00:19:10;3;3;
63915;PMS5003;50094;51.356;-0.196;2022-11-20T00:21:37;2;2;
63915;PMS5003;50094;51.356;-0.196;2022-11-20T00:24:04;4;2;
63915;PMS5003;50094;51.356;-0.196;2022-11-20T00:26:31;2;2;
63915;PMS5003;50094;51.356;-0.196;2022-11-20T00:28:59;2;2;
63915;PMS5003;50094;51.356;-0.196;2022-11-20T00:31:27;1;1;
63915;PMS5003;50094;51.356;-0.196;2022-11-20T00:33:55;3;3;
63915;PMS5003;50094;51.356;-0.196;2022-11-20T00:36:23;4;3;
63915;PMS5003;50094;51.356;-0.196;2022-11-20T00:38:53;1;1;
63915;PMS5003;50094;51.356;-0.196;2022-11-20T00:41:21;2;2;
63915;PMS5003;50094;51.356;-0.196;2022-11-20T00:43:51;2;2;
63915;PMS5003;50094;51.356;-0.196;2022-11-20T00:46:20;3;3;
63915;PMS5003;50094;51.356;-0.196;2022-11-20T00:48:48;5;4;
63915;PMS5003;50094;51.356;-0.196;2022-11-20T00:51:17;3;3;
63915;PMS5003;50094;51.356;-0.196;2022-11-20T00:53:46;3;3;
63915;PMS5003;50094;51.356;-0.196;2022-11-20T00:56:14;3;3;
63915;PMS5003;50094;51.356;-0.196;2022-11-20T00:58:42;2;2;
63915;PMS5003;50094;51.356;-0.196;2022-11-20T01:01:11;1;1;
63915;PMS5003;50094;51.356;-0.196;2022-11-20T01:03:40;2;2;
63915;PMS5003;50094;51.356;-0.196;2022-11-20T01:06:10;2;2;
63915;PMS5003;50094;51.356;-0.196;2022-11-20T01:08:39;3;3;
63915;PMS5003;50094;51.356;-0.196;2022-11-20T01:11:08;3;2;
63915;PMS5003;50094;51.356;-0.196;2022-11-20T01:13:36;3;2;
63915;PMS5003;50094;51.356;-0.196;2022-11-20T01:16:05;3;2;
63915;PMS5003;50094;51.356;-0.196;2022-11-20T01:18:35;3;1;
63915;PMS5003;50094;51.356;-0.196;2022-11-20T01:21:04;3;3;
63915;PMS5003;50094;51.356;-0.196;2022-11-20T01:23:33;2;2;
63915;PMS5003;50094;51.356;-0.196;2022-11-20T01:26:01;3;2;
63915;PMS5003;50094;51.356;-0.196;2022-11-20T01:28:29;3;2;
63915;PMS5003;50094;51.356;-0.196;2022-11-20T01:30:57;2;2;
63915;PMS5003;50094;51.356;-0.196;2022-11-20T01:33:25;2;2;
63915;PMS5003;50094;51.356;-0.196;2022-11-20T01:35:52;2;2;
63915;PMS5003;50094;51.356;-0.196;2022-11-20T01:38:29;4;3;
63915;PMS5003;50094;51.356;-0.196;2022-11-20T01:40:56;3;3;
63915;PMS5003;50094;51.356;-0.196;2022-11-20T01:43:23;2;2;
63915;PMS5003;50094;51.356;-0.196;2022-11-20T01:46:23;3;3;
63915;PMS5003;50094;51.356;-0.196;2022-11-20T01:48:51;2;2;
63915;PMS5003;50094;51.356;-0.196;2022-11-20T01:51:24;3;3;
63915;PMS5003;50094;51.356;-0.196;2022-11-20T01:53:57;2;2;
63915;PMS5003;50094;51.356;-0.196;2022-11-20T01:56:27;3;3;
63915;PMS5003;50094;51.356;-0.196;2022-11-20T01:58:58;2;2;
63915;PMS5003;50094;51.356;-0.196;2022-11-20T02:01:28;6;4;
63915;PMS5003;50094;51.356;-0.196;2022-11-20T02:03:55;4;4;
63915;PMS5003;50094;51.356;-0.196;2022-11-20T02:06:23;5;5;
63915;PMS5003;50094;51.356;-0.196;2022-11-20T02:08:53;3;3;
63915;PMS5003;50094;51.356;-0.196;2022-11-20T02:11:21;3;3;
63915;PMS5003;50094;51.356;-0.196;2022-11-20T02:13:48;5;4;
63915;PMS5003;50094;51.356;-0.196;2022-11-20T02:16:19;2;2;
63915;PMS5003;50094;51.356;-0.196;2022-11-20T02:18:49;3;2;
63915;PMS5003;50094;51.356;-0.196;2022-11-20T02:21:21;3;3;
63915;PMS5003;50094;51.356;-0.196;2022-11-20T02:23:57;4;4;
63915;PMS5003;50094;51.356;-0.196;2022-11-20T02:26:35;3;3;
63915;PMS5003;50094;51.356;-0.196;2022-11-20T02:29:08;4;4;
63915;PMS5003;50094;51.356;-0.196;2022-11-20T02:31:37;4;4;
63915;PMS5003;50094;51.356;-0.196;2022-11-20T02:34:08;5;4;
63915;PMS5003;50094;51.356;-0.196;2022-11-20T02:36:35;7;6;
63915;PMS5003;50094;51.356;-0.196;2022-11-20T02:39:05;6;6;
63915;PMS5003;50094;51.356;-0.196;2022-11-20T02:41:33;8;8;
63915;PMS5003;50094;51.356;-0.196;2022-11-20T02:44:03;12;10;
63915;PMS5003;50094;51.356;-0.196;2022-11-20T02:46:31;11;11;
63915;PMS5003;50094;51.356;-0.196;2022-11-20T02:49:00;12;9;
63915;PMS5003;50094;51.356;-0.196;2022-11-20T02:51:29;9;9;
63915;PMS5003;50094;51.356;-0.196;2022-11-20T02:53:57;8;8;
63915;PMS5003;50094;51.356;-0.196;2022-11-20T02:56:24;8;8;
63915;PMS5003;50094;51.356;-0.196;2022-11-20T02:58:51;9;9;
63915;PMS5003;50094;51.356;-0.196;2022-11-20T03:01:18;8;8;
63915;PMS5003;50094;51.356;-0.196;2022-11-20T03:03:45;8;8;
63915;PMS5003;50094;51.356;-0.196;2022-11-20T03:06:12;8;8;
63915;PMS5003;50094;51.356;-0.196;2022-11-20T03:08:39;7;7;
63915;PMS5003;50094;51.356;-0.196;2022-11-20T03:11:06;8;8;
63915;PMS5003;50094;51.356;-0.196;2022-11-20T03:13:34;5;5;
63915;PMS5003;50094;51.356;-0.196;2022-11-20T03:16:06;6;6;
63915;PMS5003;50094;51.356;-0.196;2022-11-20T03:18:35;7;7;
63915;PMS5003;50094;51.356;-0.196;2022-11-20T03:21:03;6;6;
63915;PMS5003;50094;51.356;-0.196;2022-11-20T03:23:31;9;8;
63915;PMS5003;50094;51.356;-0.196;2022-11-20T03:26:15;6;6;
63915;PMS5003;50094;51.356;-0.196;2022-11-20T03:28:46;7;7;
63915;PMS5003;50094;51.356;-0.196;2022-11-20T03:31:15;6;6;
63915;PMS5003;50094;51.356;-0.196;2022-11-20T03:33:44;9;9;
63915;PMS5003;50094;51.356;-0.196;2022-11-20T03:36:11;10;8;
63915;PMS5003;50094;51.356;-0.196;2022-11-20T03:38:41;9;7;
63915;PMS5003;50094;51.356;-0.196;2022-11-20T03:41:10;9;9;
63915;PMS5003;50094;51.356;-0.196;2022-11-20T03:43:38;5;5;
63915;PMS5003;50094;51.356;-0.196;2022-11-20T03:46:06;7;7;
63915;PMS5003;50094;51.356;-0.196;2022-11-20T03:48:33;5;5;
63915;PMS5003;50094;51.356;-0.196;2022-11-20T03:51:09;2;2;
63915;PMS5003;50094;51.356;-0.196;2022-11-20T03:53:38;2;2;
63915;PMS5003;50094;51.356;-0.196;2022-11-20T03:56:07;2;2;
63915;PMS5003;50094;51.356;-0.196;2022-11-20T03:58:36;1;1;
63915;PMS5003;50094;51.356;-0.196;2022-11-20T04:01:05;2;0;
63915;PMS5003;50094;51.356;-0.196;2022-11-20T04:03:34;0;0;
63915;PMS5003;50094;51.356;-0.196;2022-11-20T04:06:02;0;0;
63915;PMS5003;50094;51.356;-0.196;2022-11-20T04:08:30;0;0;
63915;PMS5003;50094;51.356;-0.196;2022-11-20T04:11:07;1;1;
63915;PMS5003;50094;51.356;-0.196;2022-11-20T04:13:35;1;1;
63915;PMS5003;50094;51.356;-0.196;2022-11-20T04:16:03;1;1;
63915;PMS5003;50094;51.356;-0.196;2022-11-20T04:18:31;0;0;
63915;PMS5003;50094;51.356;-0.196;2022-11-20T04:20:59;1;1;
63915;PMS5003;50094;51.356;-0.196;2022-11-20T04:23:27;1;0;
63915;PMS5003;50094;51.356;-0.196;2022-11-20T04:25:55;1;1;
63915;PMS5003;50094;51.356;-0.196;2022-11-20T04:28:28;1;1;
63915;PMS5003;50094;51.356;-0.196;2022-11-20T04:31:01;2;1;
63915;PMS5003;50094;51.356;-0.196;2022-11-20T04:33:30;0;0;
63915;PMS5003;50094;51.356;-0.196;2022-11-20T04:36:00;2;0;
63915;PMS5003;50094;51.356;-0.196;2022-11-20T04:38:28;1;0;
63915;PMS5003;50094;51.356;-0.196;2022-11-20T04:40:56;0;0;
63915;PMS5003;50094;51.356;-0.196;2022-11-20T04:43:24;0;0;
63915;PMS5003;50094;51.356;-0.196;2022-11-20T04:45:52;1;0;
63915;PMS5003;50094;51.356;-0.196;2022-11-20T04:48:19;0;0;
63915;PMS5003;50094;51.356;-0.196;2022-11-20T04:50:47;1;1;
63915;PMS5003;50094;51.356;-0.196;2022-11-20T04:53:15;0;0;
63915;PMS5003;50094;51.356;-0.196;2022-11-20T04:55:43;1;1;
63915;PMS5003;50094;51.356;-0.196;2022-11-20T04:58:10;5;5;
63915;PMS5003;50094;51.356;-0.196;2022-11-20T05:00:38;0;0;
63915;PMS5003;50094;51.356;-0.196;2022-11-20T05:03:06;0;0;
63915;PMS5003;50094;51.356;-0.196;2022-11-20T05:05:33;1;1;
63915;PMS5003;50094;51.356;-0.196;2022-11-20T05:08:00;1;1;
63915;PMS5003;50094;51.356;-0.196;2022-11-20T05:10:28;2;2;
63915;PMS5003;50094;51.356;-0.196;2022-11-20T05:12:56;2;1;
63915;PMS5003;50094;51.356;-0.196;2022-11-20T05:15:23;1;0;
63915;PMS5003;50094;51.356;-0.196;2022-11-20T05:17:51;3;1;
63915;PMS5003;50094;51.356;-0.196;2022-11-20T05:20:19;2;2;
63915;PMS5003;50094;51.356;-0.196;2022-11-20T05:22:47;1;1;
63915;PMS5003;50094;51.356;-0.196;2022-11-20T05:25:14;1;0;
63915;PMS5003;50094;51.356;-0.196;2022-11-20T05:27:41;1;0;
63915;PMS5003;50094;51.356;-0.196;2022-11-20T05:30:09;1;1;
63915;PMS5003;50094;51.356;-0.196;2022-11-20T05:32:37;1;1;
63915;PMS5003;50094;51.356;-0.196;2022-11-20T05:35:05;1;0;
63915;PMS5003;50094;51.356;-0.196;2022-11-20T05:37:32;0;0;
63915;PMS5003;50094;51.356;-0.196;2022-11-20T05:40:00;2;1;
63915;PMS5003;50094;51.356;-0.196;2022-11-20T05:42:29;0;0;
63915;PMS5003;50094;51.356;-0.196;2022-11-20T05:44:57;1;0;
63915;PMS5003;50094;51.356;-0.196;2022-11-20T05:47:25;3;1;
63915;PMS5003;50094;51.356;-0.196;2022-11-20T05:49:52;0;0;
63915;PMS5003;50094;51.356;-0.196;2022-11-20T05:52:20;2;0;
63915;PMS5003;50094;51.356;-0.196;2022-11-20T05:54:47;0;0;
63915;PMS5003;50094;51.356;-0.196;2022-11-20T05:57:14;0;0;
63915;PMS5003;50094;51.356;-0.196;2022-11-20T05:59:42;0;0;
63915;PMS5003;50094;51.356;-0.196;2022-11-20T06:02:10;1;0;
63915;PMS5003;50094;51.356;-0.196;2022-11-20T06:04:38;0;0;
63915;PMS5003;50094;51.356;-0.196;2022-11-20T06:07:06;1;0;
63915;PMS5003;50094;51.356;-0.196;2022-11-20T06:09:33;0;0;
63915;PMS5003;50094;51.356;-0.196;2022-11-20T06:12:00;0;0;
63915;PMS5003;50094;51.356;-0.196;2022-11-20T06:14:28;5;5;
63915;PMS5003;50094;51.356;-0.196;2022-11-20T06:16:55;2;2;
63915;PMS5003;50094;51.356;-0.196;2022-11-20T06:19:22;1;1;
63915;PMS5003;50094;51.356;-0.196;2022-11-20T06:21:49;1;1;
63915;PMS5003;50094;51.356;-0.196;2022-11-20T06:24:17;1;1;
63915;PMS5003;50094;51.356;-0.196;2022-11-20T06:26:44;1;1;
63915;PMS5003;50094;51.356;-0.196;2022-11-20T06:29:11;1;1;
63915;PMS5003;50094;51.356;-0.196;2022-11-20T06:31:39;1;1;
63915;PMS5003;50094;51.356;-0.196;2022-11-20T06:34:06;2;1;
63915;PMS5003;50094;51.356;-0.196;2022-11-20T06:36:34;0;0;
63915;PMS5003;50094;51.356;-0.196;2022-11-20T06:39:02;0;0;
63915;PMS5003;50094;51.356;-0.196;2022-11-20T06:41:30;0;0;
63915;PMS5003;50094;51.356;-0.196;2022-11-20T06:43:57;0;0;
63915;PMS5003;50094;51.356;-0.196;2022-11-20T06:46:25;1;1;
63915;PMS5003;50094;51.356;-0.196;2022-11-20T06:48:52;0;0;
63915;PMS5003;50094;51.356;-0.196;2022-11-20T06:51:19;0;0;
63915;PMS5003;50094;51.356;-0.196;2022-11-20T06:53:46;0;0;
63915;PMS5003;50094;51.356;-0.196;2022-11-20T06:56:13;1;1;
63915;PMS5003;50094;51.356;-0.196;2022-11-20T06:58:40;0;0;
63915;PMS5003;50094;51.356;-0.196;2022-11-20T07:01:09;1;0;
63915;PMS5003;50094;51.356;-0.196;2022-11-20T07:03:39;0;0;
63915;PMS5003;50094;51.356;-0.196;2022-11-20T07:06:07;2;0;
63915;PMS5003;50094;51.356;-0.196;2022-11-20T07:08:35;0;0;
63915;PMS5003;50094;51.356;-0.196;2022-11-20T07:11:03;2;0;
63915;PMS5003;50094;51.356;-0.196;2022-11-20T07:13:33;0;0;
63915;PMS5003;50094;51.356;-0.196;2022-11-20T07:16:01;1;0;
63915;PMS5003;50094;51.356;-0.196;2022-11-20T07:18:31;1;0;
63915;PMS5003;50094;51.356;-0.196;2022-11-20T07:21:00;0;0;
63915;PMS5003;50094;51.356;-0.196;2022-11-20T07:23:27;0;0;
63915;PMS5003;50094;51.356;-0.196;2022-11-20T07:25:54;0;0;
63915;PMS5003;50094;51.356;-0.196;2022-11-20T07:28:21;0;0;
63915;PMS5003;50094;51.356;-0.196;2022-11-20T07:30:50;0;0;
63915;PMS5003;50094;51.356;-0.196;2022-11-20T07:33:18;0;0;
63915;PMS5003;50094;51.356;-0.196;2022-11-20T07:35:46;0;0;
63915;PMS5003;50094;51.356;-0.196;2022-11-20T07:38:13;0;0;
63915;PMS5003;50094;51.356;-0.196;2022-11-20T07:40:40;0;0;
63915;PMS5003;50094;51.356;-0.196;2022-11-20T07:43:07;0;0;
63915;PMS5003;50094;51.356;-0.196;2022-11-20T07:45:35;0;0;
63915;PMS5003;50094;51.356;-0.196;2022-11-20T07:48:02;1;1;
63915;PMS5003;50094;51.356;-0.196;2022-11-20T07:50:29;1;0;
63915;PMS5003;50094;51.356;-0.196;2022-11-20T07:53:01;0;0;
63915;PMS5003;50094;51.356;-0.196;2022-11-20T07:55:29;0;0;
63915;PMS5003;50094;51.356;-0.196;2022-11-20T07:57:57;0;0;
63915;PMS5003;50094;51.356;-0.196;2022-11-20T08:00:25;0;0;
63915;PMS5003;50094;51.356;-0.196;2022-11-20T08:02:52;0;0;
63915;PMS5003;50094;51.356;-0.196;2022-11-20T08:05:20;2;0;
63915;PMS5003;50094;51.356;-0.196;2022-11-20T08:07:48;0;0;
63915;PMS5003;50094;51.356;-0.196;2022-11-20T08:10:16;0;0;
63915;PMS5003;50094;51.356;-0.196;2022-11-20T08:12:44;1;1;
63915;PMS5003;50094;51.356;-0.196;2022-11-20T08:15:12;0;0;
63915;PMS5003;50094;51.356;-0.196;2022-11-20T08:17:39;2;1;
63915;PMS5003;50094;51.356;-0.196;2022-11-20T08:20:07;0;0;
63915;PMS5003;50094;51.356;-0.196;2022-11-20T08:22:35;0;0;
63915;PMS5003;50094;51.356;-0.196;2022-11-20T08:25:02;0;0;
63915;PMS5003;50094;51.356;-0.196;2022-11-20T08:27:31;0;0;
63915;PMS5003;50094;51.356;-0.196;2022-11-20T08:29:58;0;0;
63915;PMS5003;50094;51.356;-0.196;2022-11-20T08:32:25;0;0;
63915;PMS5003;50094;51.356;-0.196;2022-11-20T08:34:52;0;0;
63915;PMS5003;50094;51.356;-0.196;2022-11-20T08:37:19;1;0;
63915;PMS5003;50094;51.356;-0.196;2022-11-20T08:39:46;0;0;
63915;PMS5003;50094;51.356;-0.196;2022-11-20T08:42:12;0;0;
63915;PMS5003;50094;51.356;-0.196;2022-11-20T08:44:39;0;0;
63915;PMS5003;50094;51.356;-0.196;2022-11-20T08:47:07;12;11;
63915;PMS5003;50094;51.356;-0.196;2022-11-20T08:49:34;2;2;
63915;PMS5003;50094;51.356;-0.196;2022-11-20T08:52:01;5;2;
63915;PMS5003;50094;51.356;-0.196;2022-11-20T08:54:29;4;1;
63915;PMS5003;50094;51.356;-0.196;2022-11-20T08:56:57;5;1;
63915;PMS5003;50094;51.356;-0.196;2022-11-20T08:59:24;1;1;
63915;PMS5003;50094;51.356;-0.196;2022-11-20T09:01:51;1;1;
63915;PMS5003;50094;51.356;-0.196;2022-11-20T09:04:18;1;1;
63915;PMS5003;50094;51.356;-0.196;2022-11-20T09:06:45;1;1;
63915;PMS5003;50094;51.356;-0.196;2022-11-20T09:09:12;2;2;
63915;PMS5003;50094;51.356;-0.196;2022-11-20T09:11:38;2;2;
63915;PMS5003;50094;51.356;-0.196;2022-11-20T09:14:05;2;0;
63915;PMS5003;50094;51.356;-0.196;2022-11-20T09:16:32;2;2;
63915;PMS5003;50094;51.356;-0.196;2022-11-20T09:19:00;0;0;
63915;PMS5003;50094;51.356;-0.196;2022-11-20T09:21:27;1;1;
63915;PMS5003;50094;51.356;-0.196;2022-11-20T09:23:54;2;0;
63915;PMS5003;50094;51.356;-0.196;2022-11-20T09:26:21;1;1;
63915;PMS5003;50094;51.356;-0.196;2022-11-20T09:28:48;0;0;
63915;PMS5003;50094;51.356;-0.196;2022-11-20T09:31:17;0;0;
63915;PMS5003;50094;51.356;-0.196;2022-11-20T09:33:49;2;1;
63915;PMS5003;50094;51.356;-0.196;2022-11-20T09:36:16;1;1;
63915;PMS5003;50094;51.356;-0.196;2022-11-20T09:38:44;2;0;
63915;PMS5003;50094;51.356;-0.196;2022-11-20T09:41:18;0;0;
63915;PMS5003;50094;51.356;-0.196;2022-11-20T09:44:02;2;2;
63915;PMS5003;50094;51.356;-0.196;2022-11-20T09:46:40;1;1;
63915;PMS5003;50094;51.356;-0.196;2022-11-20T09:49:20;1;0;
63915;PMS5003;50094;51.356;-0.196;2022-11-20T09:51:57;0;0;
63915;PMS5003;50094;51.356;-0.196;2022-11-20T09:54:27;1;1;
63915;PMS5003;50094;51.356;-0.196;2022-11-20T09:57:00;1;1;
63915;PMS5003;50094;51.356;-0.196;2022-11-20T09:59:31;1;1;
63915;PMS5003;50094;51.356;-0.196;2022-11-20T10:02:08;1;1;
63915;PMS5003;50094;51.356;-0.196;2022-11-20T10:04:44;2;0;
63915;PMS5003;50094;51.356;-0.196;2022-11-20T10:07:17;1;1;
63915;PMS5003;50094;51.356;-0.196;2022-11-20T10:09:50;0;0;
63915;PMS5003;50094;51.356;-0.196;2022-11-20T10:12:22;1;1;
63915;PMS5003;50094;51.356;-0.196;2022-11-20T10:15:03;0;0;
63915;PMS5003;50094;51.356;-0.196;2022-11-20T10:17:53;5;0;
63915;PMS5003;50094;51.356;-0.196;2022-11-20T10:20:32;2;1;
63915;PMS5003;50094;51.356;-0.196;2022-11-20T10:23:15;0;0;
63915;PMS5003;50094;51.356;-0.196;2022-11-20T10:26:58;1;1;
63915;PMS5003;50094;51.356;-0.196;2022-11-20T10:29:34;0;0;
63915;PMS5003;50094;51.356;-0.196;2022-11-20T10:32:07;2;0;
63915;PMS5003;50094;51.356;-0.196;2022-11-20T10:34:43;2;0;
63915;PMS5003;50094;51.356;-0.196;2022-11-20T10:37:16;0;0;
63915;PMS5003;50094;51.356;-0.196;2022-11-20T10:39:50;1;1;
63915;PMS5003;50094;51.356;-0.196;2022-11-20T10:42:24;1;0;
63915;PMS5003;50094;51.356;-0.196;2022-11-20T10:44:58;0;0;
63915;PMS5003;50094;51.356;-0.196;2022-11-20T10:47:37;0;0;
63915;PMS5003;50094;51.356;-0.196;2022-11-20T10:50:05;0;0;
63915;PMS5003;50094;51.356;-0.196;2022-11-20T10:52:40;0;0;
63915;PMS5003;50094;51.356;-0.196;2022-11-20T10:55:21;0;0;
63915;PMS5003;50094;51.356;-0.196;2022-11-20T10:57:57;1;0;
63915;PMS5003;50094;51.356;-0.196;2022-11-20T11:00:30;1;1;
63915;PMS5003;50094;51.356;-0.196;2022-11-20T11:02:58;3;1;
63915;PMS5003;50094;51.356;-0.196;2022-11-20T11:05:29;5;0;
63915;PMS5003;50094;51.356;-0.196;2022-11-20T11:08:03;3;1;
63915;PMS5003;50094;51.356;-0.196;2022-11-20T11:10:37;2;0;
63915;PMS5003;50094;51.356;-0.196;2022-11-20T11:13:19;0;0;
63915;PMS5003;50094;51.356;-0.196;2022-11-20T11:15:47;4;1;
63915;PMS5003;50094;51.356;-0.196;2022-11-20T11:18:22;1;1;
63915;PMS5003;50094;51.356;-0.196;2022-11-20T11:20:52;2;1;
63915;PMS5003;50094;51.356;-0.196;2022-11-20T11:23:28;1;0;
63915;PMS5003;50094;51.356;-0.196;2022-11-20T11:25:58;1;1;
63915;PMS5003;50094;51.356;-0.196;2022-11-20T11:28:28;1;0;
63915;PMS5003;50094;51.356;-0.196;2022-11-20T11:30:55;0;0;
63915;PMS5003;50094;51.356;-0.196;2022-11-20T11:33:23;3;1;
63915;PMS5003;50094;51.356;-0.196;2022-11-20T11:35:53;1;1;
63915;PMS5003;50094;51.356;-0.196;2022-11-20T11:38:23;0;0;
63915;PMS5003;50094;51.356;-0.196;2022-11-20T11:40:57;1;1;
63915;PMS5003;50094;51.356;-0.196;2022-11-20T11:43:26;1;1;
63915;PMS5003;50094;51.356;-0.196;2022-11-20T11:45:55;2;2;
63915;PMS5003;50094;51.356;-0.196;2022-11-20T11:48:23;0;0;
63915;PMS5003;50094;51.356;-0.196;2022-11-20T11:50:50;2;1;
63915;PMS5003;50094;51.356;-0.196;2022-11-20T11:53:18;0;0;
63915;PMS5003;50094;51.356;-0.196;2022-11-20T11:55:49;2;1;
63915;PMS5003;50094;51.356;-0.196;2022-11-20T11:58:31;0;0;
63915;PMS5003;50094;51.356;-0.196;2022-11-20T12:01:10;0;0;
63915;PMS5003;50094;51.356;-0.196;2022-11-20T12:03:49;2;0;
63915;PMS5003;50094;51.356;-0.196;2022-11-20T12:06:22;0;0;
63915;PMS5003;50094;51.356;-0.196;2022-11-20T12:08:53;1;0;
63915;PMS5003;50094;51.356;-0.196;2022-11-20T12:11:28;1;0;
63915;PMS5003;50094;51.356;-0.196;2022-11-20T12:14:00;0;0;
63915;PMS5003;50094;51.356;-0.196;2022-11-20T12:16:35;0;0;
63915;PMS5003;50094;51.356;-0.196;2022-11-20T12:19:06;0;0;
63915;PMS5003;50094;51.356;-0.196;2022-11-20T12:21:39;0;0;
63915;PMS5003;50094;51.356;-0.196;2022-11-20T12:24:28;3;0;
63915;PMS5003;50094;51.356;-0.196;2022-11-20T12:27:11;1;1;
63915;PMS5003;50094;51.356;-0.196;2022-11-20T12:29:59;2;0;
63915;PMS5003;50094;51.356;-0.196;2022-11-20T12:32:41;0;0;
63915;PMS5003;50094;51.356;-0.196;2022-11-20T12:35:23;1;0;
63915;PMS5003;50094;51.356;-0.196;2022-11-20T12:38:07;0;0;
63915;PMS5003;50094;51.356;-0.196;2022-11-20T12:41:03;0;0;
63915;PMS5003;50094;51.356;-0.196;2022-11-20T12:43:39;1;0;
63915;PMS5003;50094;51.356;-0.196;2022-11-20T12:46:15;2;2;
63915;PMS5003;50094;51.356;-0.196;2022-11-20T12:48:54;0;0;
63915;PMS5003;50094;51.356;-0.196;2022-11-20T12:51:34;2;2;
63915;PMS5003;50094;51.356;-0.196;2022-11-20T12:54:24;1;1;
63915;PMS5003;50094;51.356;-0.196;2022-11-20T12:57:05;0;0;
63915;PMS5003;50094;51.356;-0.196;2022-11-20T12:59:53;1;1;
63915;PMS5003;50094;51.356;-0.196;2022-11-20T13:02:30;2;1;
63915;PMS5003;50094;51.356;-0.196;2022-11-20T13:05:13;0;0;
63915;PMS5003;50094;51.356;-0.196;2022-11-20T13:07:46;0;0;
63915;PMS5003;50094;51.356;-0.196;2022-11-20T13:10:18;1;1;
63915;PMS5003;50094;51.356;-0.196;2022-11-20T13:12:54;2;1;
63915;PMS5003;50094;51.356;-0.196;2022-11-20T13:15:33;1;1;
63915;PMS5003;50094;51.356;-0.196;2022-11-20T13:18:09;3;1;
63915;PMS5003;50094;51.356;-0.196;2022-11-20T13:20:41;5;2;
63915;PMS5003;50094;51.356;-0.196;2022-11-20T13:23:09;1;1;
63915;PMS5003;50094;51.356;-0.196;2022-11-20T13:25:37;3;2;
63915;PMS5003;50094;51.356;-0.196;2022-11-20T13:28:25;1;1;
63915;PMS5003;50094;51.356;-0.196;2022-11-20T13:30:56;2;2;
63915;PMS5003;50094;51.356;-0.196;2022-11-20T13:33:26;1;1;
63915;PMS5003;50094;51.356;-0.196;2022-11-20T13:36:02;1;1;
63915;PMS5003;50094;51.356;-0.196;2022-11-20T13:38:40;2;1;
63915;PMS5003;50094;51.356;-0.196;2022-11-20T13:41:09;1;1;
63915;PMS5003;50094;51.356;-0.196;2022-11-20T13:43:37;2;1;
63915;PMS5003;50094;51.356;-0.196;2022-11-20T13:46:08;3;0;
63915;PMS5003;50094;51.356;-0.196;2022-11-20T13:48:38;1;1;
63915;PMS5003;50094;51.356;-0.196;2022-11-20T13:51:11;2;2;
63915;PMS5003;50094;51.356;-0.196;2022-11-20T13:53:52;0;0;
63915;PMS5003;50094;51.356;-0.196;2022-11-20T13:57:12;1;0;
63915;PMS5003;50094;51.356;-0.196;2022-11-20T13:59:56;1;1;
63915;PMS5003;50094;51.356;-0.196;2022-11-20T14:02:28;1;1;
63915;PMS5003;50094;51.356;-0.196;2022-11-20T14:04:57;1;1;
63915;PMS5003;50094;51.356;-0.196;2022-11-20T14:07:27;0;0;
63915;PMS5003;50094;51.356;-0.196;2022-11-20T14:10:01;1;1;
63915;PMS5003;50094;51.356;-0.196;2022-11-20T14:12:29;3;1;
63915;PMS5003;50094;51.356;-0.196;2022-11-20T14:14:58;0;0;
63915;PMS5003;50094;51.356;-0.196;2022-11-20T14:17:30;1;1;
63915;PMS5003;50094;51.356;-0.196;2022-11-20T14:20:00;1;1;
63915;PMS5003;50094;51.356;-0.196;2022-11-20T14:22:30;1;0;
63915;PMS5003;50094;51.356;-0.196;2022-11-20T14:25:03;1;1;
63915;PMS5003;50094;51.356;-0.196;2022-11-20T14:27:33;1;1;
63915;PMS5003;50094;51.356;-0.196;2022-11-20T14:30:03;0;0;
63915;PMS5003;50094;51.356;-0.196;2022-11-20T14:32:31;0;0;
63915;PMS5003;50094;51.356;-0.196;2022-11-20T14:35:02;2;0;
63915;PMS5003;50094;51.356;-0.196;2022-11-20T14:37:36;0;0;
63915;PMS5003;50094;51.356;-0.196;2022-11-20T14:40:20;0;0;
63915;PMS5003;50094;51.356;-0.196;2022-11-20T14:42:50;0;0;
63915;PMS5003;50094;51.356;-0.196;2022-11-20T14:45:18;0;0;
63915;PMS5003;50094;51.356;-0.196;2022-11-20T14:47:45;1;1;
63915;PMS5003;50094;51.356;-0.196;2022-11-20T14:50:16;2;1;
63915;PMS5003;50094;51.356;-0.196;2022-11-20T14:52:51;0;0;
63915;PMS5003;50094;51.356;-0.196;2022-11-20T14:55:27;0;0;
63915;PMS5003;50094;51.356;-0.196;2022-11-20T14:57:57;0;0;
63915;PMS5003;50094;51.356;-0.196;2022-11-20T15:00:26;1;1;
63915;PMS5003;50094;51.356;-0.196;2022-11-20T15:02:55;1;1;
63915;PMS5003;50094;51.356;-0.196;2022-11-20T15:05:23;0;0;
63915;PMS5003;50094;51.356;-0.196;2022-11-20T15:08:04;3;2;
63915;PMS5003;50094;51.356;-0.196;2022-11-20T15:10:33;1;1;
63915;PMS5003;50094;51.356;-0.196;2022-11-20T15:13:01;1;1;
63915;PMS5003;50094;51.356;-0.196;2022-11-20T15:15:32;0;0;
63915;PMS5003;50094;51.356;-0.196;2022-11-20T15:18:10;2;0;
63915;PMS5003;50094;51.356;-0.196;2022-11-20T15:20:38;0;0;
63915;PMS5003;50094;51.356;-0.196;2022-11-20T15:23:09;0;0;
63915;PMS5003;50094;51.356;-0.196;2022-11-20T15:25:39;0;0;
63915;PMS5003;50094;51.356;-0.196;2022-11-20T15:28:11;1;1;
63915;PMS5003;50094;51.356;-0.196;2022-11-20T15:30:43;0;0;
63915;PMS5003;50094;51.356;-0.196;2022-11-20T15:33:11;2;1;
63915;PMS5003;50094;51.356;-0.196;2022-11-20T15:35:39;2;0;
63915;PMS5003;50094;51.356;-0.196;2022-11-20T15:38:07;0;0;
63915;PMS5003;50094;51.356;-0.196;2022-11-20T15:40:35;0;0;
63915;PMS5003;50094;51.356;-0.196;2022-11-20T15:43:02;1;0;
63915;PMS5003;50094;51.356;-0.196;2022-11-20T15:45:30;2;1;
63915;PMS5003;50094;51.356;-0.196;2022-11-20T15:48:01;0;0;
63915;PMS5003;50094;51.356;-0.196;2022-11-20T15:50:32;0;0;
63915;PMS5003;50094;51.356;-0.196;2022-11-20T15:53:04;0;0;
63915;PMS5003;50094;51.356;-0.196;2022-11-20T15:55:32;1;1;
63915;PMS5003;50094;51.356;-0.196;2022-11-20T15:57:59;1;1;
63915;PMS5003;50094;51.356;-0.196;2022-11-20T16:00:26;1;1;
63915;PMS5003;50094;51.356;-0.196;2022-11-20T16:02:54;1;1;
63915;PMS5003;50094;51.356;-0.196;2022-11-20T16:05:21;3;1;
63915;PMS5003;50094;51.356;-0.196;2022-11-20T16:07:47;4;1;
63915;PMS5003;50094;51.356;-0.196;2022-11-20T16:10:15;3;1;
63915;PMS5003;50094;51.356;-0.196;2022-11-20T16:12:43;2;1;
63915;PMS5003;50094;51.356;-0.196;2022-11-20T16:15:11;2;1;
63915;PMS5003;50094;51.356;-0.196;2022-11-20T16:17:38;1;1;
63915;PMS5003;50094;51.356;-0.196;2022-11-20T16:20:05;3;1;
63915;PMS5003;50094;51.356;-0.196;2022-11-20T16:22:37;1;1;
63915;PMS5003;50094;51.356;-0.196;2022-11-20T16:25:05;1;1;
63915;PMS5003;50094;51.356;-0.196;2022-11-20T16:27:32;3;2;
63915;PMS5003;50094;51.356;-0.196;2022-11-20T16:30:00;2;1;
63915;PMS5003;50094;51.356;-0.196;2022-11-20T16:32:28;2;1;
63915;PMS5003;50094;51.356;-0.196;2022-11-20T16:34:55;2;2;
63915;PMS5003;50094;51.356;-0.196;2022-11-20T16:37:22;1;1;
63915;PMS5003;50094;51.356;-0.196;2022-11-20T16:39:49;1;1;
63915;PMS5003;50094;51.356;-0.196;2022-11-20T16:42:15;1;1;
63915;PMS5003;50094;51.356;-0.196;2022-11-20T16:44:43;3;1;
63915;PMS5003;50094;51.356;-0.196;2022-11-20T16:47:12;2;2;
63915;PMS5003;50094;51.356;-0.196;2022-11-20T16:49:39;2;1;
63915;PMS5003;50094;51.356;-0.196;2022-11-20T16:52:06;1;1;
63915;PMS5003;50094;51.356;-0.196;2022-11-20T16:54:33;2;2;
63915;PMS5003;50094;51.356;-0.196;2022-11-20T16:57:00;2;2;